createdAt,value
2022-07-29T00:01:44.459Z,15.50
2022-07-29T00:04:26.233Z,15.44
2022-07-29T00:07:07.946Z,15.38
2022-07-29T00:09:50.945Z,15.31
2022-07-29T00:12:33.808Z,15.25
2022-07-29T00:15:16.722Z,15.19
2022-07-29T00:17:58.617Z,15.15
2022-07-29T00:20:40.514Z,15.12
2022-07-29T00:23:22.410Z,15.08
2022-07-29T00:26:04.307Z,15.07
2022-07-29T00:28:46.202Z,15.03
2022-07-29T00:31:28.333Z,15.00
2022-07-29T00:34:30.324Z,14.96
2022-07-29T00:37:12.165Z,14.90
2022-07-29T00:39:53.958Z,14.85
2022-07-29T00:42:46.438Z,14.80
2022-07-29T00:45:28.397Z,14.76
2022-07-29T00:48:11.010Z,14.74
2022-07-29T00:50:53.007Z,14.70
2022-07-29T00:53:36.268Z,14.69
2022-07-29T00:56:18.131Z,14.69
2022-07-29T00:59:01.356Z,14.68
2022-07-29T01:01:43.376Z,14.65
2022-07-29T01:04:26.072Z,14.62
2022-07-29T01:07:08.994Z,14.58
2022-07-29T01:09:51.742Z,14.55
2022-07-29T01:12:34.976Z,14.50
2022-07-29T01:15:17.113Z,14.47
2022-07-29T01:18:03.025Z,14.46
2022-07-29T01:21:22.807Z,14.46
2022-07-29T01:24:43.729Z,14.46
2022-07-29T01:27:40.767Z,14.44
2022-07-29T01:30:26.966Z,14.43
2022-07-29T01:33:34.973Z,14.39
2022-07-29T01:36:47.899Z,14.35
2022-07-29T01:39:36.242Z,14.32
2022-07-29T01:42:42.919Z,14.29
2022-07-29T01:45:31.930Z,14.25
2022-07-29T01:48:20.802Z,14.20
2022-07-29T01:51:20.554Z,14.15
2022-07-29T01:54:09.459Z,14.06
2022-07-29T01:56:54.893Z,14.02
2022-07-29T01:59:39.611Z,13.97
2022-07-29T02:02:24.522Z,13.91
2022-07-29T02:05:08.958Z,13.86
2022-07-29T02:07:53.064Z,13.81
2022-07-29T02:10:36.726Z,13.78
2022-07-29T02:13:21.014Z,13.77
2022-07-29T02:16:06.610Z,13.73
2022-07-29T02:18:53.407Z,13.69
2022-07-29T02:21:36.736Z,13.65
2022-07-29T02:24:20.167Z,13.61
2022-07-29T02:27:03.528Z,13.55
2022-07-29T02:29:47.099Z,13.50
2022-07-29T02:32:30.604Z,13.47
2022-07-29T02:35:15.737Z,13.44
2022-07-29T02:38:17.396Z,13.40
2022-07-29T02:41:01.442Z,13.35
2022-07-29T02:43:46.000Z,13.32
2022-07-29T02:46:32.984Z,13.30
2022-07-29T02:49:25.036Z,13.29
2022-07-29T02:52:21.076Z,13.28
2022-07-29T02:55:11.984Z,13.28
2022-07-29T02:58:03.599Z,13.26
2022-07-29T03:00:48.331Z,13.26
2022-07-29T03:03:35.283Z,13.24
2022-07-29T03:06:28.879Z,13.22
2022-07-29T03:09:23.138Z,13.21
2022-07-29T03:12:06.058Z,13.19
2022-07-29T03:14:49.884Z,13.19
2022-07-29T03:17:32.894Z,13.18
2022-07-29T03:20:15.261Z,13.19
2022-07-29T03:22:57.125Z,13.19
2022-07-29T03:25:39.223Z,13.20
2022-07-29T03:28:22.233Z,13.20
2022-07-29T03:31:08.013Z,13.21
2022-07-29T03:33:50.959Z,13.19
2022-07-29T03:36:32.849Z,13.19
2022-07-29T03:39:19.658Z,13.19
2022-07-29T03:42:02.271Z,13.21
2022-07-29T03:44:46.823Z,13.23
2022-07-29T03:47:50.168Z,13.26
2022-07-29T03:50:34.890Z,13.28
2022-07-29T03:53:17.195Z,13.31
2022-07-29T03:56:01.782Z,13.32
2022-07-29T03:58:45.461Z,13.34
2022-07-29T04:01:29.054Z,13.35
2022-07-29T04:04:11.568Z,13.37
2022-07-29T04:06:53.431Z,13.42
2022-07-29T04:09:35.260Z,13.48
2022-07-29T04:12:17.325Z,13.55
2022-07-29T04:14:59.118Z,13.60
2022-07-29T04:17:41.014Z,13.68
2022-07-29T04:20:22.911Z,13.75
2022-07-29T04:23:04.849Z,13.81
2022-07-29T04:25:47.013Z,13.86
2022-07-29T04:28:29.008Z,13.94
2022-07-29T04:31:11.708Z,14.04
2022-07-29T04:33:53.720Z,14.13
2022-07-29T04:36:35.821Z,14.25
2022-07-29T04:39:22.735Z,14.36
2022-07-29T04:42:05.549Z,14.47
2022-07-29T04:44:50.314Z,14.57
2022-07-29T04:47:32.414Z,14.69
2022-07-29T04:50:14.347Z,14.80
2022-07-29T04:52:56.819Z,14.93
2022-07-29T04:55:38.963Z,15.01
2022-07-29T04:58:21.329Z,15.11
2022-07-29T05:01:04.735Z,15.23
2022-07-29T05:03:47.000Z,15.33
2022-07-29T05:06:28.858Z,15.43
2022-07-29T05:09:10.755Z,15.52
2022-07-29T05:11:52.567Z,15.64
2022-07-29T05:14:34.647Z,15.74
2022-07-29T05:17:16.849Z,15.82
2022-07-29T05:19:58.756Z,15.89
2022-07-29T05:22:40.641Z,15.97
2022-07-29T05:25:22.888Z,16.06
2022-07-29T05:28:05.048Z,16.18
2022-07-29T05:30:47.001Z,16.30
2022-07-29T05:33:34.925Z,16.38
2022-07-29T05:36:18.516Z,16.50
2022-07-29T05:39:00.328Z,16.62
2022-07-29T05:41:42.205Z,16.76
2022-07-29T05:44:25.271Z,16.91
2022-07-29T05:47:07.839Z,17.09
2022-07-29T05:49:49.939Z,17.25
2022-07-29T05:52:31.836Z,17.42
2022-07-29T05:55:13.732Z,17.59
2022-07-29T05:57:55.628Z,17.79
2022-07-29T06:00:37.625Z,18.02
2022-07-29T06:03:19.522Z,18.26
2022-07-29T06:06:01.621Z,18.47
2022-07-29T06:08:43.414Z,18.67
2022-07-29T06:11:25.311Z,18.88
2022-07-29T06:14:07.410Z,19.08
2022-07-29T06:16:49.394Z,19.26
2022-07-29T06:19:31.714Z,19.38
2022-07-29T06:22:13.610Z,19.51
2022-07-29T06:24:55.506Z,19.65
2022-07-29T06:27:37.402Z,19.80
2022-07-29T06:30:19.399Z,19.95
2022-07-29T06:33:03.139Z,20.14
2022-07-29T06:35:46.160Z,20.32
2022-07-29T06:38:40.339Z,20.50
2022-07-29T06:41:25.003Z,20.74
2022-07-29T06:44:06.900Z,20.96
2022-07-29T06:46:51.257Z,21.19
2022-07-29T06:49:33.305Z,21.41
2022-07-29T06:52:15.250Z,21.58
2022-07-29T06:54:57.146Z,21.71
2022-07-29T06:57:39.041Z,21.81
2022-07-29T07:00:20.936Z,21.96
2022-07-29T07:03:02.831Z,22.10
2022-07-29T07:05:45.547Z,22.12
2022-07-29T07:08:27.444Z,22.17
2022-07-29T07:11:09.953Z,22.36
2022-07-29T07:13:51.862Z,22.59
2022-07-29T07:16:33.911Z,22.69
2022-07-29T07:19:16.051Z,22.75
2022-07-29T07:21:57.946Z,22.79
2022-07-29T07:24:39.739Z,22.79
2022-07-29T07:27:21.636Z,22.88
2022-07-29T07:30:06.889Z,22.89
2022-07-29T07:32:49.008Z,22.85
2022-07-29T07:35:30.905Z,22.77
2022-07-29T07:38:12.902Z,22.68
2022-07-29T07:40:54.902Z,22.62
2022-07-29T07:43:36.797Z,22.58
2022-07-29T07:46:18.833Z,22.52
2022-07-29T07:49:00.864Z,22.45
2022-07-29T07:51:42.798Z,22.43
2022-07-29T07:54:33.084Z,22.40
2022-07-29T07:57:17.231Z,22.41
2022-07-29T07:59:59.025Z,22.44
2022-07-29T08:02:41.484Z,22.49
2022-07-29T08:05:23.430Z,22.53
2022-07-29T08:08:05.946Z,22.56
2022-07-29T08:10:53.878Z,22.55
2022-07-29T08:13:36.081Z,22.54
2022-07-29T08:16:17.992Z,22.53
2022-07-29T08:18:59.873Z,22.50
2022-07-29T08:21:41.769Z,22.46
2022-07-29T08:24:42.302Z,22.43
2022-07-29T08:30:27.085Z,22.41
2022-07-29T08:33:08.914Z,22.39
2022-07-29T08:35:51.592Z,22.37
2022-07-29T08:38:34.515Z,22.35
2022-07-29T08:41:16.408Z,22.34
2022-07-29T08:43:58.612Z,22.36
2022-07-29T08:46:40.921Z,22.35
2022-07-29T08:49:22.847Z,22.33
2022-07-29T08:52:05.254Z,22.34
2022-07-29T08:54:48.242Z,22.35
2022-07-29T08:57:30.957Z,22.37
2022-07-29T09:00:14.800Z,22.38
2022-07-29T09:02:59.768Z,22.41
2022-07-29T09:05:48.215Z,22.46
2022-07-29T09:08:32.878Z,22.50
2022-07-29T09:11:14.980Z,22.53
2022-07-29T09:13:56.872Z,22.56
2022-07-29T09:16:53.597Z,22.57
2022-07-29T09:19:38.180Z,22.60
2022-07-29T09:22:31.436Z,22.66
2022-07-29T09:25:13.457Z,22.72
2022-07-29T09:27:55.432Z,22.78
2022-07-29T09:30:55.657Z,22.84
2022-07-29T09:33:40.435Z,22.93
2022-07-29T09:36:22.930Z,23.03
2022-07-29T09:39:04.826Z,23.17
2022-07-29T09:41:49.392Z,23.29
2022-07-29T09:44:46.498Z,23.46
2022-07-29T09:47:46.184Z,23.61
2022-07-29T09:50:38.666Z,23.66
2022-07-29T09:53:40.963Z,23.64
2022-07-29T09:56:42.833Z,23.61
2022-07-29T09:59:27.719Z,23.59
2022-07-29T10:02:17.722Z,23.67
2022-07-29T10:05:08.227Z,23.73
2022-07-29T10:07:57.582Z,23.74
2022-07-29T10:10:45.095Z,23.75
2022-07-29T10:13:27.691Z,23.78
2022-07-29T10:16:10.672Z,23.72
2022-07-29T10:18:52.716Z,23.68
2022-07-29T10:21:36.622Z,23.63
2022-07-29T10:24:20.087Z,23.61
2022-07-29T10:27:03.833Z,23.60
2022-07-29T10:29:45.657Z,23.62
2022-07-29T10:32:53.963Z,23.68
2022-07-29T10:35:55.797Z,23.94
2022-07-29T10:38:47.126Z,24.45
2022-07-29T10:41:47.854Z,24.91
2022-07-29T10:44:30.879Z,25.31
2022-07-29T10:47:27.106Z,25.61
2022-07-29T10:50:11.696Z,25.76
2022-07-29T10:52:58.204Z,25.86
2022-07-29T10:55:47.762Z,26.02
2022-07-29T10:58:29.742Z,26.19
2022-07-29T11:01:37.054Z,26.38
2022-07-29T11:04:45.865Z,26.56
2022-07-29T11:07:47.796Z,26.38
2022-07-29T11:10:31.327Z,26.33
2022-07-29T11:13:13.871Z,26.35
2022-07-29T11:15:59.553Z,26.39
2022-07-29T11:19:13.254Z,26.40
2022-07-29T11:21:58.565Z,26.52
2022-07-29T11:24:50.117Z,26.59
2022-07-29T11:27:40.679Z,26.56
2022-07-29T11:30:25.193Z,26.54
2022-07-29T11:33:07.248Z,26.51
2022-07-29T11:36:16.859Z,26.53
2022-07-29T11:39:36.728Z,26.50
2022-07-29T11:42:32.528Z,26.51
2022-07-29T11:45:41.640Z,26.61
2022-07-29T11:51:32.916Z,26.68
2022-07-29T11:54:27.419Z,26.45
2022-07-29T11:57:09.873Z,26.33
2022-07-29T11:59:52.177Z,26.29
2022-07-29T12:02:43.424Z,26.30
2022-07-29T12:05:53.138Z,26.38
2022-07-29T12:08:43.621Z,26.44
2022-07-29T12:11:26.146Z,26.40
2022-07-29T12:14:08.759Z,26.27
2022-07-29T12:16:50.896Z,26.22
2022-07-29T12:19:44.511Z,26.24
2022-07-29T12:22:31.036Z,26.10
2022-07-29T12:25:35.011Z,26.15
2022-07-29T12:28:27.425Z,26.29
2022-07-29T12:31:42.106Z,26.39
2022-07-29T12:34:19.348Z,26.45
2022-07-29T12:37:02.469Z,26.46
2022-07-29T12:39:44.567Z,26.53
2022-07-29T12:42:26.496Z,26.62
2022-07-29T12:45:09.279Z,26.63
2022-07-29T12:47:54.554Z,26.68
2022-07-29T12:50:52.535Z,26.73
2022-07-29T12:53:36.106Z,26.68
2022-07-29T12:56:41.814Z,26.61
2022-07-29T12:59:23.329Z,26.51
2022-07-29T13:02:05.349Z,26.39
2022-07-29T13:05:00.101Z,26.30
2022-07-29T13:07:55.511Z,26.26
2022-07-29T13:10:39.558Z,26.29
2022-07-29T13:13:21.809Z,26.29
2022-07-29T13:16:09.084Z,26.32
2022-07-29T13:19:04.842Z,26.30
2022-07-29T13:21:46.699Z,26.30
2022-07-29T13:24:28.598Z,26.28
2022-07-29T13:27:12.136Z,26.26
2022-07-29T13:29:57.582Z,26.24
2022-07-29T13:32:39.505Z,26.25
2022-07-29T13:35:21.810Z,26.28
2022-07-29T13:38:04.147Z,26.31
2022-07-29T13:40:46.114Z,26.33
2022-07-29T13:43:28.011Z,26.36
2022-07-29T13:46:10.057Z,26.29
2022-07-29T13:48:52.044Z,26.24
2022-07-29T13:51:34.004Z,26.22
2022-07-29T13:54:16.104Z,26.24
2022-07-29T13:56:58.001Z,26.24
2022-07-29T13:59:41.329Z,26.25
2022-07-29T14:02:25.799Z,26.27
2022-07-29T14:05:08.901Z,26.27
2022-07-29T14:07:50.907Z,26.17
2022-07-29T14:10:32.802Z,26.15
2022-07-29T14:13:24.571Z,26.17
2022-07-29T14:16:08.371Z,26.20
2022-07-29T14:18:50.266Z,26.23
2022-07-29T14:21:32.058Z,26.24
2022-07-29T14:24:17.863Z,26.23
2022-07-29T14:27:04.228Z,26.19
2022-07-29T14:29:46.246Z,26.06
2022-07-29T14:32:28.141Z,25.99
2022-07-29T14:35:10.243Z,25.92
2022-07-29T14:37:52.069Z,25.91
2022-07-29T14:40:33.931Z,25.94
2022-07-29T14:43:15.929Z,25.95
2022-07-29T14:46:02.876Z,25.95
2022-07-29T14:48:47.233Z,25.95
2022-07-29T14:51:32.248Z,25.90
2022-07-29T14:54:14.468Z,25.88
2022-07-29T14:56:58.283Z,25.88
2022-07-29T14:59:40.616Z,25.92
2022-07-29T15:02:25.570Z,25.98
2022-07-29T15:05:13.827Z,26.02
2022-07-29T15:07:55.723Z,26.04
2022-07-29T15:10:37.720Z,26.00
2022-07-29T15:13:20.026Z,25.91
2022-07-29T15:16:03.356Z,25.83
2022-07-29T15:18:45.251Z,25.75
2022-07-29T15:21:26.978Z,25.70
2022-07-29T15:24:08.837Z,25.67
2022-07-29T15:26:50.733Z,25.67
2022-07-29T15:29:32.731Z,25.66
2022-07-29T15:32:15.307Z,25.66
2022-07-29T15:34:57.342Z,25.69
2022-07-29T15:37:48.347Z,25.75
2022-07-29T15:40:31.578Z,25.80
2022-07-29T15:43:13.782Z,25.80
2022-07-29T15:46:14.484Z,25.84
2022-07-29T15:48:56.464Z,25.89
2022-07-29T15:51:38.413Z,25.94
2022-07-29T15:54:20.308Z,25.96
2022-07-29T15:57:03.837Z,25.92
2022-07-29T15:59:45.623Z,25.89
2022-07-29T16:02:27.634Z,25.87
2022-07-29T16:05:09.703Z,25.87
2022-07-29T16:07:51.628Z,25.86
2022-07-29T16:10:33.630Z,25.81
2022-07-29T16:13:17.042Z,25.76
2022-07-29T16:16:02.544Z,25.72
2022-07-29T16:18:45.757Z,25.66
2022-07-29T16:21:27.662Z,25.60
2022-07-29T16:24:09.469Z,25.58
2022-07-29T16:26:52.172Z,25.52
2022-07-29T16:29:34.305Z,25.44
2022-07-29T16:32:16.272Z,25.37
2022-07-29T16:35:05.567Z,25.34
2022-07-29T16:37:47.433Z,25.30
2022-07-29T16:40:29.226Z,25.28
2022-07-29T16:43:11.328Z,25.24
2022-07-29T16:45:53.162Z,25.20
2022-07-29T16:48:35.856Z,25.16
2022-07-29T16:51:19.983Z,25.12
2022-07-29T16:54:01.886Z,25.07
2022-07-29T16:56:43.775Z,25.03
2022-07-29T16:59:25.875Z,25.02
2022-07-29T17:02:07.828Z,25.00
2022-07-29T17:04:49.973Z,25.03
2022-07-29T17:07:31.767Z,25.05
2022-07-29T17:10:13.664Z,25.03
2022-07-29T17:12:55.560Z,25.03
2022-07-29T17:15:37.459Z,25.02
2022-07-29T17:18:19.452Z,24.99
2022-07-29T17:21:01.350Z,24.95
2022-07-29T17:23:43.244Z,24.91
2022-07-29T17:26:25.549Z,24.88
2022-07-29T17:29:07.752Z,24.85
2022-07-29T17:31:49.613Z,24.82
2022-07-29T17:34:31.578Z,24.80
2022-07-29T17:37:13.445Z,24.78
2022-07-29T17:39:59.976Z,24.76
2022-07-29T17:42:42.250Z,24.73
2022-07-29T17:45:24.077Z,24.69
2022-07-29T17:48:06.656Z,24.64
2022-07-29T17:50:49.277Z,24.59
2022-07-29T17:53:31.573Z,24.53
2022-07-29T17:56:14.389Z,24.49
2022-07-29T17:58:56.285Z,24.44
2022-07-29T18:01:40.358Z,24.39
2022-07-29T18:04:23.726Z,24.32
2022-07-29T18:07:06.069Z,24.27
2022-07-29T18:09:47.861Z,24.21
2022-07-29T18:12:29.758Z,24.16
2022-07-29T18:15:11.652Z,24.10
2022-07-29T18:17:57.499Z,24.05
2022-07-29T18:20:40.352Z,23.99
2022-07-29T18:23:22.255Z,23.92
2022-07-29T18:26:04.969Z,23.85
2022-07-29T18:28:46.971Z,23.81
2022-07-29T18:31:29.516Z,23.77
2022-07-29T18:34:11.681Z,23.72
2022-07-29T18:36:53.917Z,23.67
2022-07-29T18:39:35.781Z,23.64
2022-07-29T18:42:17.571Z,23.60
2022-07-29T18:44:59.587Z,23.54
2022-07-29T18:47:41.979Z,23.49
2022-07-29T18:50:30.417Z,23.41
2022-07-29T18:53:12.231Z,23.34
2022-07-29T18:55:58.584Z,23.28
2022-07-29T18:58:42.053Z,23.22
2022-07-29T19:01:23.999Z,23.15
2022-07-29T19:04:14.655Z,23.08
2022-07-29T19:06:59.422Z,23.01
2022-07-29T19:09:49.144Z,22.93
2022-07-29T19:12:32.013Z,22.87
2022-07-29T19:15:20.138Z,22.80
2022-07-29T19:18:02.561Z,22.74
2022-07-29T19:20:44.457Z,22.65
2022-07-29T19:23:26.285Z,22.56
2022-07-29T19:26:08.437Z,22.47
2022-07-29T19:28:50.555Z,22.38
2022-07-29T19:31:32.654Z,22.30
2022-07-29T19:34:14.653Z,22.22
2022-07-29T19:36:56.695Z,22.14
2022-07-29T19:39:38.752Z,22.05
2022-07-29T19:42:20.650Z,21.97
2022-07-29T19:45:02.552Z,21.90
2022-07-29T19:47:44.439Z,21.82
2022-07-29T19:50:26.436Z,21.74
2022-07-29T19:53:09.085Z,21.65
2022-07-29T19:55:50.947Z,21.59
2022-07-29T19:58:33.045Z,21.53
2022-07-29T20:01:15.144Z,21.46
2022-07-29T20:03:57.146Z,21.40
2022-07-29T20:06:39.038Z,21.33
2022-07-29T20:09:20.942Z,21.26
2022-07-29T20:12:04.677Z,21.19
2022-07-29T20:14:46.570Z,21.13
2022-07-29T20:17:29.183Z,21.05
2022-07-29T20:20:11.285Z,20.99
2022-07-29T20:22:54.203Z,20.95
2022-07-29T20:25:36.202Z,20.88
2022-07-29T20:28:18.096Z,20.81
2022-07-29T20:31:00.131Z,20.75
2022-07-29T20:33:42.093Z,20.70
2022-07-29T20:36:23.991Z,20.66
2022-07-29T20:39:05.884Z,20.60
2022-07-29T20:41:48.638Z,20.54
2022-07-29T20:44:30.501Z,20.48
2022-07-29T20:47:12.391Z,20.40
2022-07-29T20:49:54.286Z,20.33
2022-07-29T20:52:36.490Z,20.29
2022-07-29T20:55:18.655Z,20.24
2022-07-29T20:58:00.589Z,20.18
2022-07-29T21:00:42.586Z,20.09
2022-07-29T21:03:24.585Z,20.01
2022-07-29T21:06:07.905Z,19.92
2022-07-29T21:08:49.912Z,19.89
2022-07-29T21:11:44.323Z,19.84
2022-07-29T21:14:48.052Z,19.82
2022-07-29T21:17:31.747Z,19.79
2022-07-29T21:20:15.895Z,19.76
2022-07-29T21:22:58.304Z,19.73
2022-07-29T21:25:42.349Z,19.68
2022-07-29T21:28:27.113Z,19.62
2022-07-29T21:31:12.707Z,19.53
2022-07-29T21:33:54.589Z,19.43
2022-07-29T21:36:48.271Z,19.34
2022-07-29T21:39:30.568Z,19.24
2022-07-29T21:42:12.668Z,19.17
2022-07-29T21:44:54.563Z,19.09
2022-07-29T21:47:36.663Z,19.05
2022-07-29T21:50:18.664Z,19.00
2022-07-29T21:53:01.171Z,18.94
2022-07-29T21:55:43.278Z,18.88
2022-07-29T21:58:25.166Z,18.81
2022-07-29T22:01:07.097Z,18.74
2022-07-29T22:03:49.061Z,18.67
2022-07-29T22:06:33.107Z,18.60
2022-07-29T22:09:15.005Z,18.54
2022-07-29T22:11:57.103Z,18.49
2022-07-29T22:14:38.938Z,18.45
2022-07-29T22:17:20.815Z,18.40
2022-07-29T22:20:03.610Z,18.35
2022-07-29T22:22:45.811Z,18.31
2022-07-29T22:25:27.912Z,18.29
2022-07-29T22:28:09.808Z,18.27
2022-07-29T22:30:51.956Z,18.25
2022-07-29T22:33:33.805Z,18.23
2022-07-29T22:36:15.597Z,18.21
2022-07-29T22:38:57.494Z,18.19
2022-07-29T22:41:39.799Z,18.18
2022-07-29T22:44:21.524Z,18.16
2022-07-29T22:47:04.719Z,18.10
2022-07-29T22:49:46.816Z,18.07
2022-07-29T22:52:28.713Z,18.03
2022-07-29T22:55:10.819Z,18.00
2022-07-29T22:57:52.713Z,17.99
2022-07-29T23:00:34.706Z,17.97
2022-07-29T23:03:16.630Z,17.96
2022-07-29T23:05:58.605Z,17.92
2022-07-29T23:08:40.601Z,17.88
2022-07-29T23:11:22.494Z,17.82
2022-07-29T23:14:04.240Z,17.77
2022-07-29T23:16:46.674Z,17.71
2022-07-29T23:19:28.694Z,17.66
2022-07-29T23:22:10.487Z,17.62
2022-07-29T23:24:52.384Z,17.55
2022-07-29T23:27:34.277Z,17.50
2022-07-29T23:30:16.285Z,17.46
2022-07-29T23:32:58.174Z,17.43
2022-07-29T23:35:40.477Z,17.40
2022-07-29T23:38:22.374Z,17.37
2022-07-29T23:41:09.185Z,17.34
2022-07-29T23:43:51.181Z,17.29
2022-07-29T23:46:33.158Z,17.25
2022-07-29T23:49:15.411Z,17.21
2022-07-29T23:51:57.381Z,17.19
2022-07-29T23:54:39.174Z,17.16
2022-07-29T23:57:24.656Z,17.14
